Airfield :
LOGIN :

Register | Disclaimer

   EN    FR    IT 

 










Legend :    VFR   Marginal VFR   IFR   Intensive IFR   Very Intensive IFR
Visi :
Ceiling :
>= 8 km
>= 3000ft
5 to 8 km
1000 to 3000 ft
1500m to 5 km
500 to 1000 ft
800 to 1500m
200 to 500 ft
< 800m
< 200 ft
Symbols :   Thunderstorms  Fog  Heavy snow  Heavy precipitations  Wind > 20 kt
SIGMETs :     Misc.  Thunderstorms  Icing  Turbulence  Mountain Waves  Volcanic Ashes







- Airport Elevation : 124 ft
- IATA code : AVN
- Download approach charts


LFMV - Avignon Caumont

CURRENT METAR :
  • 231430Z AUTO 01006KT 340V040 CAVOK 33/15 Q1016 NOSIG

EXPIRED METARs :
  • 231400Z AUTO 35007KT 320V030 CAVOK 33/15 Q1017 NOSIG
  • 231330Z AUTO 33010KT 300V010 CAVOK 32/15 Q1017 NOSIG
  • 231300Z AUTO 32012KT 290V350 CAVOK 32/15 Q1017 NOSIG
  • 231230Z AUTO 33013KT 300V360 CAVOK 32/15 Q1018 NOSIG
  • 231200Z AUTO 32012KT CAVOK 32/15 Q1018 NOSIG

TAF TAF LFMV
Valid from the 23 at 15:00 until the 24 at 15:00 UTC


231400Z 2315/2415 33013KT CAVOK
BECMG 2315/2317 VRB03KT
BECMG 2319/2321 32013KT
BECMG 2323/2401 34029KT BKN050
TEMPO 2401/2408 34030G40KT
BECMG 2402/2403 CAVOK
TEMPO 2408/2415 34035G50KT
ATIS : +33 4 90 84 32 84
No reported NOTAMs for that airfield.



MET'MAP, your aeronautical weather chart ! - Copyright ORBIFLY December 2007 - Disclaimer

ORBIFLY MET'MAP TEAM :

Programming & Development : Alexandra Zaïnal
Concept & Development : Baudouin d'Aumeries
Co-Development & Prog : Marc-Olivier Méhu
Technical & hardware support : Manuel Goepfert

Contact : metmap@orbifly.com




SOURCES & CREDITS :

   NOAA